• Join FlightAware (Why Join?)
  • Login
  • US Flag 
Rudolph Flight #1: Arrived! 
02:32AM EST


 

Airport Tracker/Info


-or-


 

Live Flight TrackerFlight Track Log ✈ UAL4431 ✈ 12-Sep-2013 ✈ CYWG - KDEN

Flight Track Log - Related Links

Times and Time Zones

All times are in EDT time to prevent confusion due to time zone crossing. See the UAL4431 flight status page for this flight to view local times or setup timezone preferences in your user account.

Time Position Orientation Groundspeed Altitude Reporting Facility
EDT Latitude Longitude Course Direction KTS MPH feet Rate Location/Type
09:04AM 49.9000 -97.2500 215° Southwest 80 92 1,000  Level Winnipeg Center
09:05AM 49.9167 -97.3000 297° West 180 207 3,100 1,860 Climbing Winnipeg Center
09:06AM 49.8667 -97.3500 213° Southwest 250 288 4,800 2,340 Climbing Winnipeg Center
09:07AM 49.6320 -97.4858 213° Southwest  Level Estimated
09:07AM 49.8000 -97.4000 206° Southwest 260 299 7,800  Level Winnipeg Center
09:08AM 49.5392 -97.5689 213° Southwest  Level Estimated
09:08AM 49.7333 -97.4833 219° Southwest 280 322 10,000  Level Winnipeg Center
09:09AM 49.4477 -97.6669 215° Southwest  Level FlightAware Approximate
09:09AM 49.6667 -97.5333 206° Southwest 290 334 12,400  Level Winnipeg Center
09:10AM 49.6000 -97.6167 219° Southwest 300 345 14,700 1,920 Climbing Winnipeg Center
09:11AM 49.5167 -97.6833 207° Southwest 330 380 16,300 1,500 Climbing Winnipeg Center
09:12AM 49.4500 -97.7333 206° Southwest 350 403 17,800 1,380 Climbing Winnipeg Center
09:13AM 49.3333 -97.8333 209° Southwest 360 414 19,100 1,380 Climbing Winnipeg Center
09:14AM 49.2500 -97.9167 213° Southwest 380 437 20,600 1,500 Climbing Winnipeg Center
09:15AM 49.1500 -97.9833 204° Southwest 390 449 22,200 1,500 Climbing Winnipeg Center
09:16AM 49.0667 -98.0833 218° Southwest 390 449 23,700 1,500 Climbing Winnipeg Center
09:17AM 48.9667 -98.1667 209° Southwest 400 460 25,300 1,500 Climbing Winnipeg Center
09:18AM 48.8667 -98.2333 204° Southwest 400 460 26,800 1,500 Climbing Winnipeg Center
09:19AM 48.7667 -98.3333 213° Southwest 390 449 28,300 1,500 Climbing Winnipeg Center
09:20AM 48.6833 -98.4167 213° Southwest 390 449 29,800 1,440 Climbing Winnipeg Center
09:21AM 48.5833 -98.4833 204° Southwest 390 449 31,200 1,380 Climbing Winnipeg Center
09:22AM 48.5000 -98.5833 219° Southwest 380 437 32,600 1,200 Climbing Winnipeg Center
09:23AM 48.4000 -98.6500 204° Southwest 380 437 33,700 960 Climbing Winnipeg Center
09:23AM 48.3822 -98.6864 234° Southwest 383 441 34,100 900 Climbing Minneapolis Center
09:24AM 48.2908 -98.7625 209° Southwest 381 438 35,100 840 Climbing Minneapolis Center
09:25AM 48.2014 -98.8367 209° Southwest 374 430 35,900 420 Climbing Minneapolis Center
09:26AM 48.1097 -98.9144 210° Southwest 378 435 36,000  Climbing Minneapolis Center
09:27AM 47.9906 -99.0142 209° Southwest 404 465 36,000  Level Minneapolis Center
09:28AM 47.8861 -99.1017 209° Southwest 425 489 36,000  Level Minneapolis Center
09:29AM 47.7781 -99.1908 209° Southwest 441 507 36,000  Level Minneapolis Center
09:31AM 47.6667 -99.2825 209° Southwest 450 518 36,000  Level Minneapolis Center
09:32AM 47.5767 -99.3536 208° Southwest 456 525 36,000  Level Minneapolis Center
09:33AM 47.4458 -99.4619 209° Southwest 456 525 36,000  Level Minneapolis Center
09:34AM 47.3139 -99.5672 208° Southwest 453 521 36,000  Level Minneapolis Center
09:35AM 47.2067 -99.6544 209° Southwest 450 518 36,000  Level Minneapolis Center
09:36AM 47.0975 -99.7425 209° Southwest 449 517 36,000  Level Minneapolis Center
09:37AM 46.9908 -99.8286 209° Southwest 446 513 36,000  Level Minneapolis Center
09:38AM 46.8825 -99.9139 208° Southwest 444 511 36,000  Level Minneapolis Center
09:39AM 46.7744 -99.9986 208° Southwest 444 511 36,000  Level Minneapolis Center
09:40AM 46.6675 -100.0844 209° Southwest 442 509 36,000  Level Minneapolis Center
09:41AM 46.5331 -100.1886 208° Southwest 445 512 36,000  Level Minneapolis Center
09:42AM 46.4244 -100.2739 208° Southwest 444 511 36,000  Level Minneapolis Center
09:43AM 46.3150 -100.3561 207° Southwest 444 511 36,000  Level Minneapolis Center
09:44AM 46.2067 -100.4400 208° Southwest 445 512 36,000  Level Minneapolis Center
09:45AM 46.0978 -100.5231 208° Southwest 444 511 36,000  Level Minneapolis Center
09:46AM 45.9883 -100.6064 208° Southwest 446 513 36,000  Level Minneapolis Center
09:47AM 45.8792 -100.6892 208° Southwest 446 513 36,000  Level Minneapolis Center
09:48AM 45.7478 -100.7886 208° Southwest 447 514 36,000  Level Minneapolis Center
09:49AM 45.6392 -100.8711 208° Southwest 446 513 36,000  Level Minneapolis Center
09:50AM 45.5292 -100.9522 207° Southwest 446 513 36,000  Level Minneapolis Center
09:51AM 45.4194 -101.0342 208° Southwest 447 514 36,000  Level Minneapolis Center
09:52AM 45.3103 -101.1139 207° Southwest 446 513 36,000  Level Minneapolis Center
09:53AM 45.2017 -101.1944 208° Southwest 443 510 36,000  Level Minneapolis Center
09:54AM 45.0719 -101.2906 208° Southwest 441 507 36,000  Level Minneapolis Center
09:55AM 44.9631 -101.3692 207° Southwest 440 506 36,000  Level Minneapolis Center
09:56AM 44.8536 -101.4494 207° Southwest 443 510 36,000  Level Minneapolis Center
09:57AM 44.7456 -101.5269 207° Southwest 440 506 36,000  Level Minneapolis Center
09:58AM 44.6369 -101.6064 208° Southwest 439 505 36,000  Level Minneapolis Center
09:59AM 44.5264 -101.6836 206° Southwest 443 510 36,000  Level Minneapolis Center
10:00AM 44.4169 -101.7619 207° Southwest 443 510 36,000  Level Minneapolis Center
10:01AM 44.2856 -101.8550 207° Southwest 443 510 36,000  Level Minneapolis Center
10:03AM 44.1758 -101.9322 207° Southwest 442 509 36,000  Level Minneapolis Center
10:04AM 44.0453 -102.0239 207° Southwest 441 507 36,000  Level Minneapolis Center
10:05AM 43.9367 -102.1003 207° Southwest 439 505 36,000  Level Minneapolis Center
10:06AM 43.8272 -102.1758 206° Southwest 439 505 36,000  Level Minneapolis Center
10:07AM 43.6947 -102.2686 207° Southwest 438 504 36,000  Level Denver Center
10:08AM 43.5911 -102.3419 207° Southwest 438 504 36,000  Level Denver Center
10:09AM 43.4872 -102.4136 207° Southwest 436 502 36,000  Level Denver Center
10:10AM 43.3656 -102.4967 206° Southwest 435 501 36,000  Level Denver Center
10:11AM 43.2619 -102.5675 206° Southwest 435 501 36,000  Level Denver Center
10:12AM 43.1414 -102.6508 207° Southwest 435 501 36,000  Level Denver Center
10:13AM 43.0361 -102.7225 206° Southwest 440 506 36,000  Level Denver Center
10:14AM 42.9322 -102.7931 206° Southwest 437 503 36,000  Level Denver Center
10:15AM 42.8092 -102.8744 206° Southwest 439 505 36,000  Level Denver Center
10:16AM 42.7039 -102.9450 206° Southwest 439 505 36,000  Level Denver Center
10:17AM 42.5739 -103.0056 199° South 442 509 36,000  Level Denver Center
10:18AM 42.4586 -103.0406 193° South 443 510 36,000 -300 Level Denver Center
10:19AM 42.3239 -103.0822 193° South 444 511 35,500 -960 Descending Denver Center
10:20AM 42.2078 -103.1189 193° South 446 513 34,100 -1,440 Descending Denver Center
10:21AM 42.0936 -103.1542 193° South 440 506 32,600 -1,020 Descending Denver Center
10:22AM 41.9631 -103.1942 193° South 432 497 32,000 -300 Descending Denver Center
10:23AM 41.8503 -103.2286 193° South 433 498 32,000  Level Denver Center
10:24AM 41.7169 -103.2692 193° South 438 504 32,000  Level Denver Center
10:25AM 41.6003 -103.3039 193° South 446 513 32,000  Level Denver Center
10:26AM 41.4642 -103.3453 193° South 447 514 32,000  Level Denver Center
10:27AM 41.3467 -103.3817 193° South 452 520 32,000  Level Denver Center
10:28AM 41.2297 -103.4156 192° South 449 517 32,000  Level Denver Center
10:29AM 41.0942 -103.4567 193° South 447 514 32,000  Level Denver Center
10:30AM 40.9758 -103.4914 192° South 440 506 32,000 -540 Level Denver Center
10:32AM 40.8600 -103.5381 197° South 436 502 31,000 -1,500 Descending Denver Center
10:33AM 40.7489 -103.5953 201° Southwest 430 495 29,000 -1,920 Descending Denver Center
10:34AM 40.6400 -103.6503 201° Southwest 420 483 27,100 -2,280 Descending Denver Center
10:35AM 40.5356 -103.7589 218° Southwest 401 461 24,400 -2,520 Descending Denver Center
10:36AM 40.4561 -103.8672 226° Southwest 397 457 21,900 -1,920 Descending Denver Center
10:37AM 40.3833 -103.9692 227° Southwest 373 429 20,500 -1,680 Descending Denver Center
10:38AM 40.2992 -104.0672 222° Southwest 327 376 18,200 -1,440 Descending Denver Center
10:39AM 40.2275 -104.1439 219° Southwest 331 381 17,300 -1,080 Descending Denver Center
10:40AM 40.1536 -104.2247 220° Southwest 324 373 16,000 -1,080 Descending Denver Center
10:41AM 40.0858 -104.2978 220° Southwest 317 365 15,100 -1,080 Descending Denver Center
10:42AM 40.0147 -104.3750 220° Southwest 309 356 13,800 -960 Descending Denver Center
10:43AM 39.9833 -104.4167 225° Southwest 273 314 13,600 -780 Descending Denver TRACON
10:44AM 39.9333 -104.4667 217° Southwest 266 306 12,600 -900 Descending Denver TRACON
10:45AM 39.8667 -104.5000 201° Southwest 255 293 11,900 -840 Descending Denver TRACON
10:45AM 39.8231 -104.4997 180° South 252 290 11,400 -840 Descending Denver Center
10:46AM 39.7542 -104.5014 181° South 246 283 10,600 -1,140 Descending Denver Center
10:47AM 39.6822 -104.5028 181° South 239 275 9,100 -780 Descending Denver Center
10:48AM 39.6189 -104.5039 181° South 227 261 9,100  Level Denver Center
10:49AM 39.5528 -104.5044 180° South 221 254 9,100  Level Denver Center
10:50AM 39.4961 -104.5194 192° South 221 254 9,100 -60 Level Denver Center
10:51AM 39.4944 -104.6050 269° West 243 280 9,000 -480 Descending Denver Center
10:52AM 39.5539 -104.6447 333° Northwest 229 264 8,100 -480 Descending Denver Center
10:53AM 39.6142 -104.6447 360° North 220 253 8,000  Descending Denver Center
10:54AM 39.6725 -104.6433 North 199 229 8,100 -300 Climbing Denver Center
10:56AM 39.7286 -104.6428 360° North 202 232 7,400 -840 Descending Denver Center
10:57AM 39.7822 -104.6425 360° North 183 211 6,400 -900 Descending Denver Center
10:58AM 39.8244 -104.6417 North 155 178 5,600 -780 Descending Denver Center